Archival Weather

Tokyo Intl

Tokyo, Japan (RJTT)

Report from: Sunday, March 19, 2023 8:30 PM JST
Current time: Tuesday, February 27, 2024 7:52 PM JST

Current weather – Weather history – Daily summaries
Weather forecast

Temperature10.0°C (50.0°F)
Wind chill7.2°C (44.9°F)
Dew point3.0°C (37.4°F)
Winds 12 kts (6.2 m/s, 13.8 mph) Vrb
Winds variableWinds variable from Southeast (130°) to South-Southwest (200°)
Visibility6.2 mi. (10 km)
Clouds Few clouds 5,000 ft. (1,524 m)
Altimeter30.09 in.Hg (1019 mB)
Relative humidity62 %
Density altitude-679 ft. (-207 m)
Remarks No significant changes expected in the next two hours
Flight conditions Visual Meteorological Conditions
Raw dataRJTT 191130Z 16012KT 130V200 9999 FEW050 10/03 Q1019 NOSIG
An error has occurred. This application may no longer respond until reloaded. Reload 🗙